sensor_id;sensor_type;location;lat;lon;timestamp;temperature;humidity
4856;DHT22;2442;48.676;7.986;2023-11-19T00:01:09;9.40;99.90
4856;DHT22;2442;48.676;7.986;2023-11-19T00:03:36;9.40;99.90
4856;DHT22;2442;48.676;7.986;2023-11-19T00:06:02;9.30;99.90
4856;DHT22;2442;48.676;7.986;2023-11-19T00:08:30;9.60;99.90
4856;DHT22;2442;48.676;7.986;2023-11-19T00:10:57;9.70;99.90
4856;DHT22;2442;48.676;7.986;2023-11-19T00:13:23;9.60;99.90
4856;DHT22;2442;48.676;7.986;2023-11-19T00:15:51;9.60;99.90
4856;DHT22;2442;48.676;7.986;2023-11-19T00:18:19;9.60;99.90
4856;DHT22;2442;48.676;7.986;2023-11-19T00:20:46;9.50;99.90
4856;DHT22;2442;48.676;7.986;2023-11-19T00:23:12;9.50;99.90
4856;DHT22;2442;48.676;7.986;2023-11-19T00:25:39;9.60;99.90
4856;DHT22;2442;48.676;7.986;2023-11-19T00:28:06;9.60;99.90
4856;DHT22;2442;48.676;7.986;2023-11-19T00:30:32;9.50;99.90
4856;DHT22;2442;48.676;7.986;2023-11-19T00:32:59;9.40;99.90
4856;DHT22;2442;48.676;7.986;2023-11-19T00:35:27;9.60;99.90
4856;DHT22;2442;48.676;7.986;2023-11-19T00:37:53;9.70;99.90
4856;DHT22;2442;48.676;7.986;2023-11-19T00:40:20;9.80;99.90
4856;DHT22;2442;48.676;7.986;2023-11-19T00:42:48;9.80;99.90
4856;DHT22;2442;48.676;7.986;2023-11-19T00:45:15;9.70;99.90
4856;DHT22;2442;48.676;7.986;2023-11-19T00:47:41;9.70;99.90
4856;DHT22;2442;48.676;7.986;2023-11-19T00:50:08;9.70;99.90
4856;DHT22;2442;48.676;7.986;2023-11-19T00:52:37;9.70;99.90
4856;DHT22;2442;48.676;7.986;2023-11-19T00:55:04;9.80;99.90
4856;DHT22;2442;48.676;7.986;2023-11-19T00:57:30;9.90;99.90
4856;DHT22;2442;48.676;7.986;2023-11-19T00:59:58;9.90;99.90
4856;DHT22;2442;48.676;7.986;2023-11-19T01:02:25;9.90;99.90
4856;DHT22;2442;48.676;7.986;2023-11-19T01:04:51;9.90;99.90
4856;DHT22;2442;48.676;7.986;2023-11-19T01:07:18;9.90;99.90
4856;DHT22;2442;48.676;7.986;2023-11-19T01:09:48;9.80;99.90
4856;DHT22;2442;48.676;7.986;2023-11-19T01:12:15;9.90;99.90
4856;DHT22;2442;48.676;7.986;2023-11-19T01:14:41;9.90;99.90
4856;DHT22;2442;48.676;7.986;2023-11-19T01:17:08;9.90;99.90
4856;DHT22;2442;48.676;7.986;2023-11-19T01:19:35;9.80;99.90
4856;DHT22;2442;48.676;7.986;2023-11-19T01:22:01;9.80;99.90
4856;DHT22;2442;48.676;7.986;2023-11-19T01:24:28;10.00;99.90
4856;DHT22;2442;48.676;7.986;2023-11-19T01:26:57;9.80;99.90
4856;DHT22;2442;48.676;7.986;2023-11-19T01:29:25;9.90;99.90
4856;DHT22;2442;48.676;7.986;2023-11-19T01:31:51;10.00;99.90
4856;DHT22;2442;48.676;7.986;2023-11-19T01:34:18;10.00;99.90
4856;DHT22;2442;48.676;7.986;2023-11-19T01:36:46;10.00;99.90
4856;DHT22;2442;48.676;7.986;2023-11-19T01:39:14;10.00;99.90
4856;DHT22;2442;48.676;7.986;2023-11-19T01:41:41;10.00;99.90
4856;DHT22;2442;48.676;7.986;2023-11-19T01:44:09;9.90;99.90
4856;DHT22;2442;48.676;7.986;2023-11-19T01:46:38;9.90;99.90
4856;DHT22;2442;48.676;7.986;2023-11-19T01:49:05;10.00;99.90
4856;DHT22;2442;48.676;7.986;2023-11-19T01:51:32;10.10;99.90
4856;DHT22;2442;48.676;7.986;2023-11-19T01:54:00;10.10;99.90
4856;DHT22;2442;48.676;7.986;2023-11-19T01:56:27;10.10;99.90
4856;DHT22;2442;48.676;7.986;2023-11-19T01:58:56;10.20;99.90
4856;DHT22;2442;48.676;7.986;2023-11-19T02:01:24;10.10;99.90
4856;DHT22;2442;48.676;7.986;2023-11-19T02:03:51;10.20;99.90
4856;DHT22;2442;48.676;7.986;2023-11-19T02:06:18;10.20;99.90
4856;DHT22;2442;48.676;7.986;2023-11-19T02:08:44;10.20;99.90
4856;DHT22;2442;48.676;7.986;2023-11-19T02:11:11;10.20;99.90
4856;DHT22;2442;48.676;7.986;2023-11-19T02:13:38;10.20;99.90
4856;DHT22;2442;48.676;7.986;2023-11-19T02:16:06;10.20;99.90
4856;DHT22;2442;48.676;7.986;2023-11-19T02:18:36;10.10;99.90
4856;DHT22;2442;48.676;7.986;2023-11-19T02:21:02;10.30;99.90
4856;DHT22;2442;48.676;7.986;2023-11-19T02:23:30;10.30;99.90
4856;DHT22;2442;48.676;7.986;2023-11-19T02:26:05;10.30;99.90
4856;DHT22;2442;48.676;7.986;2023-11-19T02:28:36;10.30;99.90
4856;DHT22;2442;48.676;7.986;2023-11-19T02:31:02;10.30;99.90
4856;DHT22;2442;48.676;7.986;2023-11-19T02:33:31;10.30;99.90
4856;DHT22;2442;48.676;7.986;2023-11-19T02:35:59;10.10;99.90
4856;DHT22;2442;48.676;7.986;2023-11-19T02:38:28;10.20;99.90
4856;DHT22;2442;48.676;7.986;2023-11-19T02:40:54;10.30;99.90
4856;DHT22;2442;48.676;7.986;2023-11-19T02:43:22;10.30;99.90
4856;DHT22;2442;48.676;7.986;2023-11-19T02:45:50;10.30;99.90
4856;DHT22;2442;48.676;7.986;2023-11-19T02:48:17;10.10;99.90
4856;DHT22;2442;48.676;7.986;2023-11-19T02:50:44;10.20;99.90
4856;DHT22;2442;48.676;7.986;2023-11-19T02:53:11;10.20;99.90
4856;DHT22;2442;48.676;7.986;2023-11-19T02:55:38;10.30;99.90
4856;DHT22;2442;48.676;7.986;2023-11-19T02:58:06;10.20;99.90
4856;DHT22;2442;48.676;7.986;2023-11-19T03:00:45;10.20;99.90
4856;DHT22;2442;48.676;7.986;2023-11-19T03:03:19;10.20;99.90
4856;DHT22;2442;48.676;7.986;2023-11-19T03:05:48;10.30;99.90
4856;DHT22;2442;48.676;7.986;2023-11-19T03:08:15;10.40;99.90
4856;DHT22;2442;48.676;7.986;2023-11-19T03:10:43;10.20;99.90
4856;DHT22;2442;48.676;7.986;2023-11-19T03:13:11;10.30;99.90
4856;DHT22;2442;48.676;7.986;2023-11-19T03:15:38;10.30;99.90
4856;DHT22;2442;48.676;7.986;2023-11-19T03:18:04;10.30;99.90
4856;DHT22;2442;48.676;7.986;2023-11-19T03:20:32;10.40;99.90
4856;DHT22;2442;48.676;7.986;2023-11-19T03:22:59;10.40;99.90
4856;DHT22;2442;48.676;7.986;2023-11-19T03:25:27;10.30;99.90
4856;DHT22;2442;48.676;7.986;2023-11-19T03:27:58;10.40;99.90
4856;DHT22;2442;48.676;7.986;2023-11-19T03:30:25;10.40;99.90
4856;DHT22;2442;48.676;7.986;2023-11-19T03:32:52;10.40;99.90
4856;DHT22;2442;48.676;7.986;2023-11-19T03:35:22;10.40;99.90
4856;DHT22;2442;48.676;7.986;2023-11-19T03:37:56;10.30;99.90
4856;DHT22;2442;48.676;7.986;2023-11-19T03:40:42;10.40;99.90
4856;DHT22;2442;48.676;7.986;2023-11-19T03:43:30;10.40;99.90
4856;DHT22;2442;48.676;7.986;2023-11-19T03:46:15;10.50;99.90
4856;DHT22;2442;48.676;7.986;2023-11-19T03:48:43;10.50;99.90
4856;DHT22;2442;48.676;7.986;2023-11-19T03:51:12;10.60;99.90
4856;DHT22;2442;48.676;7.986;2023-11-19T03:53:42;10.50;99.90
4856;DHT22;2442;48.676;7.986;2023-11-19T03:56:11;10.50;99.90
4856;DHT22;2442;48.676;7.986;2023-11-19T03:58:38;10.50;99.90
4856;DHT22;2442;48.676;7.986;2023-11-19T04:01:05;10.60;99.90
4856;DHT22;2442;48.676;7.986;2023-11-19T04:03:31;10.60;99.90
4856;DHT22;2442;48.676;7.986;2023-11-19T04:05:58;10.60;99.90
4856;DHT22;2442;48.676;7.986;2023-11-19T04:08:25;10.60;99.90
4856;DHT22;2442;48.676;7.986;2023-11-19T04:10:53;10.70;99.90
4856;DHT22;2442;48.676;7.986;2023-11-19T04:13:19;10.70;99.90
4856;DHT22;2442;48.676;7.986;2023-11-19T04:15:46;10.60;99.90
4856;DHT22;2442;48.676;7.986;2023-11-19T04:18:13;10.70;99.90
4856;DHT22;2442;48.676;7.986;2023-11-19T04:20:39;10.70;99.90
4856;DHT22;2442;48.676;7.986;2023-11-19T04:23:07;10.70;99.90
4856;DHT22;2442;48.676;7.986;2023-11-19T04:25:34;10.80;99.90
4856;DHT22;2442;48.676;7.986;2023-11-19T04:28:03;10.80;99.90
4856;DHT22;2442;48.676;7.986;2023-11-19T04:30:29;10.80;99.90
4856;DHT22;2442;48.676;7.986;2023-11-19T04:32:57;10.90;99.90
4856;DHT22;2442;48.676;7.986;2023-11-19T04:35:23;10.90;99.90
4856;DHT22;2442;48.676;7.986;2023-11-19T04:37:51;10.90;99.90
4856;DHT22;2442;48.676;7.986;2023-11-19T04:40:18;10.90;99.90
4856;DHT22;2442;48.676;7.986;2023-11-19T04:42:44;11.00;99.90
4856;DHT22;2442;48.676;7.986;2023-11-19T04:45:12;10.90;99.90
4856;DHT22;2442;48.676;7.986;2023-11-19T04:47:39;10.90;99.90
4856;DHT22;2442;48.676;7.986;2023-11-19T04:50:06;11.00;99.90
4856;DHT22;2442;48.676;7.986;2023-11-19T04:52:36;11.00;99.90
4856;DHT22;2442;48.676;7.986;2023-11-19T04:55:03;11.10;99.90
4856;DHT22;2442;48.676;7.986;2023-11-19T04:57:30;11.10;99.90
4856;DHT22;2442;48.676;7.986;2023-11-19T04:59:58;11.10;99.90
4856;DHT22;2442;48.676;7.986;2023-11-19T05:02:26;11.20;99.90
4856;DHT22;2442;48.676;7.986;2023-11-19T05:04:52;11.20;99.90
4856;DHT22;2442;48.676;7.986;2023-11-19T05:07:19;11.20;99.90
4856;DHT22;2442;48.676;7.986;2023-11-19T05:09:46;11.30;99.90
4856;DHT22;2442;48.676;7.986;2023-11-19T05:12:12;11.30;99.90
4856;DHT22;2442;48.676;7.986;2023-11-19T05:14:39;11.30;99.90
4856;DHT22;2442;48.676;7.986;2023-11-19T05:17:06;11.30;99.90
4856;DHT22;2442;48.676;7.986;2023-11-19T05:19:34;11.30;99.90
4856;DHT22;2442;48.676;7.986;2023-11-19T05:22:01;11.40;99.90
4856;DHT22;2442;48.676;7.986;2023-11-19T05:24:27;11.40;99.90
4856;DHT22;2442;48.676;7.986;2023-11-19T05:26:54;11.40;99.90
4856;DHT22;2442;48.676;7.986;2023-11-19T05:29:21;11.40;99.90
4856;DHT22;2442;48.676;7.986;2023-11-19T05:31:48;11.50;99.90
4856;DHT22;2442;48.676;7.986;2023-11-19T05:34:14;11.40;99.90
4856;DHT22;2442;48.676;7.986;2023-11-19T05:36:42;11.50;99.90
4856;DHT22;2442;48.676;7.986;2023-11-19T05:39:09;11.40;99.90
4856;DHT22;2442;48.676;7.986;2023-11-19T05:41:36;11.60;99.90
4856;DHT22;2442;48.676;7.986;2023-11-19T05:44:03;11.50;99.90
4856;DHT22;2442;48.676;7.986;2023-11-19T05:46:30;11.60;99.90
4856;DHT22;2442;48.676;7.986;2023-11-19T05:48:56;11.50;99.90
4856;DHT22;2442;48.676;7.986;2023-11-19T05:51:23;11.50;99.90
4856;DHT22;2442;48.676;7.986;2023-11-19T05:53:52;11.50;99.90
4856;DHT22;2442;48.676;7.986;2023-11-19T05:56:20;11.60;99.90
4856;DHT22;2442;48.676;7.986;2023-11-19T05:58:47;11.60;99.90
4856;DHT22;2442;48.676;7.986;2023-11-19T06:01:14;11.60;99.90
4856;DHT22;2442;48.676;7.986;2023-11-19T06:03:42;11.60;99.90
4856;DHT22;2442;48.676;7.986;2023-11-19T06:06:12;11.60;99.90
4856;DHT22;2442;48.676;7.986;2023-11-19T06:08:39;11.60;99.90
4856;DHT22;2442;48.676;7.986;2023-11-19T06:11:07;11.60;99.90
4856;DHT22;2442;48.676;7.986;2023-11-19T06:13:34;11.60;99.90
4856;DHT22;2442;48.676;7.986;2023-11-19T06:16:00;11.70;99.90
4856;DHT22;2442;48.676;7.986;2023-11-19T06:18:28;11.70;99.90
4856;DHT22;2442;48.676;7.986;2023-11-19T06:20:56;11.70;99.90
4856;DHT22;2442;48.676;7.986;2023-11-19T06:23:23;11.80;99.90
4856;DHT22;2442;48.676;7.986;2023-11-19T06:25:50;11.80;99.90
4856;DHT22;2442;48.676;7.986;2023-11-19T06:28:18;11.80;99.90
4856;DHT22;2442;48.676;7.986;2023-11-19T06:30:44;11.90;99.90
4856;DHT22;2442;48.676;7.986;2023-11-19T06:33:12;11.90;99.90
4856;DHT22;2442;48.676;7.986;2023-11-19T06:35:39;11.90;99.90
4856;DHT22;2442;48.676;7.986;2023-11-19T06:38:06;11.80;99.90
4856;DHT22;2442;48.676;7.986;2023-11-19T06:40:32;11.90;99.90
4856;DHT22;2442;48.676;7.986;2023-11-19T06:43:00;12.00;99.90
4856;DHT22;2442;48.676;7.986;2023-11-19T06:45:30;12.00;99.90
4856;DHT22;2442;48.676;7.986;2023-11-19T06:47:56;12.10;99.90
4856;DHT22;2442;48.676;7.986;2023-11-19T06:50:24;12.00;99.90
4856;DHT22;2442;48.676;7.986;2023-11-19T06:52:50;12.00;99.90
4856;DHT22;2442;48.676;7.986;2023-11-19T06:55:17;12.00;99.90
4856;DHT22;2442;48.676;7.986;2023-11-19T06:57:43;12.00;99.90
4856;DHT22;2442;48.676;7.986;2023-11-19T07:00:11;12.10;99.90
4856;DHT22;2442;48.676;7.986;2023-11-19T07:02:39;12.10;99.90
4856;DHT22;2442;48.676;7.986;2023-11-19T07:05:06;12.10;99.90
4856;DHT22;2442;48.676;7.986;2023-11-19T07:07:33;12.10;99.90
4856;DHT22;2442;48.676;7.986;2023-11-19T07:10:00;12.40;99.90
4856;DHT22;2442;48.676;7.986;2023-11-19T07:12:27;12.20;99.90
4856;DHT22;2442;48.676;7.986;2023-11-19T07:14:54;12.30;99.90
4856;DHT22;2442;48.676;7.986;2023-11-19T07:17:21;12.40;99.90
4856;DHT22;2442;48.676;7.986;2023-11-19T07:19:50;12.30;99.90
4856;DHT22;2442;48.676;7.986;2023-11-19T07:22:17;12.30;99.90
4856;DHT22;2442;48.676;7.986;2023-11-19T07:24:44;12.40;99.90
4856;DHT22;2442;48.676;7.986;2023-11-19T07:27:11;12.50;99.90
4856;DHT22;2442;48.676;7.986;2023-11-19T07:29:39;12.40;99.90
4856;DHT22;2442;48.676;7.986;2023-11-19T07:32:06;12.30;99.90
4856;DHT22;2442;48.676;7.986;2023-11-19T07:34:33;12.40;99.90
4856;DHT22;2442;48.676;7.986;2023-11-19T07:37:02;12.40;99.90
4856;DHT22;2442;48.676;7.986;2023-11-19T07:39:28;12.50;99.90
4856;DHT22;2442;48.676;7.986;2023-11-19T07:41:55;12.40;99.90
4856;DHT22;2442;48.676;7.986;2023-11-19T07:44:22;12.50;99.90
4856;DHT22;2442;48.676;7.986;2023-11-19T07:46:48;12.60;99.90
4856;DHT22;2442;48.676;7.986;2023-11-19T07:49:15;12.50;99.90
4856;DHT22;2442;48.676;7.986;2023-11-19T07:51:42;12.50;99.90
4856;DHT22;2442;48.676;7.986;2023-11-19T07:54:10;12.50;99.90
4856;DHT22;2442;48.676;7.986;2023-11-19T07:56:36;12.50;99.90
4856;DHT22;2442;48.676;7.986;2023-11-19T07:59:03;12.50;99.90
4856;DHT22;2442;48.676;7.986;2023-11-19T08:01:30;12.50;99.90
4856;DHT22;2442;48.676;7.986;2023-11-19T08:03:56;12.40;99.90
4856;DHT22;2442;48.676;7.986;2023-11-19T08:06:23;12.40;99.90
4856;DHT22;2442;48.676;7.986;2023-11-19T08:08:50;12.40;99.90
4856;DHT22;2442;48.676;7.986;2023-11-19T08:11:18;12.40;99.90
4856;DHT22;2442;48.676;7.986;2023-11-19T08:13:45;12.50;99.90
4856;DHT22;2442;48.676;7.986;2023-11-19T08:16:12;12.50;99.90
4856;DHT22;2442;48.676;7.986;2023-11-19T08:18:41;12.50;99.90
4856;DHT22;2442;48.676;7.986;2023-11-19T08:21:08;12.60;99.90
4856;DHT22;2442;48.676;7.986;2023-11-19T08:23:35;12.50;99.90
4856;DHT22;2442;48.676;7.986;2023-11-19T08:26:02;12.60;99.90
4856;DHT22;2442;48.676;7.986;2023-11-19T08:28:31;12.50;99.90
4856;DHT22;2442;48.676;7.986;2023-11-19T08:30:59;12.50;99.90
4856;DHT22;2442;48.676;7.986;2023-11-19T08:33:26;12.60;99.90
4856;DHT22;2442;48.676;7.986;2023-11-19T08:35:53;12.70;99.90
4856;DHT22;2442;48.676;7.986;2023-11-19T08:38:20;12.70;99.90
4856;DHT22;2442;48.676;7.986;2023-11-19T08:40:47;12.70;99.90
4856;DHT22;2442;48.676;7.986;2023-11-19T08:43:13;12.80;99.90
4856;DHT22;2442;48.676;7.986;2023-11-19T08:45:41;12.70;99.90
4856;DHT22;2442;48.676;7.986;2023-11-19T08:48:09;12.80;99.90
4856;DHT22;2442;48.676;7.986;2023-11-19T08:50:35;12.80;99.90
4856;DHT22;2442;48.676;7.986;2023-11-19T08:53:02;12.70;99.90
4856;DHT22;2442;48.676;7.986;2023-11-19T08:55:32;12.80;99.90
4856;DHT22;2442;48.676;7.986;2023-11-19T08:57:58;12.70;99.90
4856;DHT22;2442;48.676;7.986;2023-11-19T09:00:25;12.80;99.90
4856;DHT22;2442;48.676;7.986;2023-11-19T09:02:53;12.80;99.90
4856;DHT22;2442;48.676;7.986;2023-11-19T09:05:19;13.00;99.90
4856;DHT22;2442;48.676;7.986;2023-11-19T09:07:46;12.90;99.90
4856;DHT22;2442;48.676;7.986;2023-11-19T09:10:15;12.90;99.90
4856;DHT22;2442;48.676;7.986;2023-11-19T09:12:41;12.90;99.90
4856;DHT22;2442;48.676;7.986;2023-11-19T09:15:08;12.80;99.90
4856;DHT22;2442;48.676;7.986;2023-11-19T09:17:36;12.80;99.90
4856;DHT22;2442;48.676;7.986;2023-11-19T09:20:04;12.90;99.90
4856;DHT22;2442;48.676;7.986;2023-11-19T09:22:31;12.80;99.90
4856;DHT22;2442;48.676;7.986;2023-11-19T09:24:58;12.80;99.90
4856;DHT22;2442;48.676;7.986;2023-11-19T09:27:25;12.90;99.90
4856;DHT22;2442;48.676;7.986;2023-11-19T09:29:52;12.80;99.90
4856;DHT22;2442;48.676;7.986;2023-11-19T09:32:22;12.90;99.90
4856;DHT22;2442;48.676;7.986;2023-11-19T09:34:49;12.80;99.90
4856;DHT22;2442;48.676;7.986;2023-11-19T09:37:17;13.00;99.90
4856;DHT22;2442;48.676;7.986;2023-11-19T09:39:44;12.90;99.90
4856;DHT22;2442;48.676;7.986;2023-11-19T09:42:11;12.90;99.90
4856;DHT22;2442;48.676;7.986;2023-11-19T09:44:38;12.90;99.90
4856;DHT22;2442;48.676;7.986;2023-11-19T09:47:05;13.00;99.90
4856;DHT22;2442;48.676;7.986;2023-11-19T09:49:32;13.10;99.90
4856;DHT22;2442;48.676;7.986;2023-11-19T09:51:59;13.10;99.90
4856;DHT22;2442;48.676;7.986;2023-11-19T09:54:27;13.10;99.90
4856;DHT22;2442;48.676;7.986;2023-11-19T09:56:54;13.20;99.90
4856;DHT22;2442;48.676;7.986;2023-11-19T09:59:24;13.10;99.90
4856;DHT22;2442;48.676;7.986;2023-11-19T10:01:51;13.20;99.90
4856;DHT22;2442;48.676;7.986;2023-11-19T10:04:18;13.30;99.90
4856;DHT22;2442;48.676;7.986;2023-11-19T10:06:45;13.20;99.90
4856;DHT22;2442;48.676;7.986;2023-11-19T10:09:12;13.20;99.90
4856;DHT22;2442;48.676;7.986;2023-11-19T10:11:42;13.40;99.90
4856;DHT22;2442;48.676;7.986;2023-11-19T10:14:08;13.40;99.90
4856;DHT22;2442;48.676;7.986;2023-11-19T10:16:35;13.30;99.90
4856;DHT22;2442;48.676;7.986;2023-11-19T10:19:02;13.50;99.90
4856;DHT22;2442;48.676;7.986;2023-11-19T10:21:29;13.30;99.90
4856;DHT22;2442;48.676;7.986;2023-11-19T10:23:58;13.40;99.90
4856;DHT22;2442;48.676;7.986;2023-11-19T10:26:25;13.70;99.90
4856;DHT22;2442;48.676;7.986;2023-11-19T10:28:54;13.50;99.90
4856;DHT22;2442;48.676;7.986;2023-11-19T10:31:21;13.60;99.90
4856;DHT22;2442;48.676;7.986;2023-11-19T10:33:50;13.60;99.90
4856;DHT22;2442;48.676;7.986;2023-11-19T10:36:17;13.80;99.90
4856;DHT22;2442;48.676;7.986;2023-11-19T10:38:51;13.80;99.90
4856;DHT22;2442;48.676;7.986;2023-11-19T10:41:26;13.70;99.90
4856;DHT22;2442;48.676;7.986;2023-11-19T10:43:54;13.80;99.90
4856;DHT22;2442;48.676;7.986;2023-11-19T10:46:20;13.80;99.90
4856;DHT22;2442;48.676;7.986;2023-11-19T10:48:48;13.90;99.90
4856;DHT22;2442;48.676;7.986;2023-11-19T10:51:17;14.10;99.90
4856;DHT22;2442;48.676;7.986;2023-11-19T10:53:46;14.40;99.90
4856;DHT22;2442;48.676;7.986;2023-11-19T10:56:16;14.20;99.90
4856;DHT22;2442;48.676;7.986;2023-11-19T10:58:44;14.40;99.90
4856;DHT22;2442;48.676;7.986;2023-11-19T11:01:13;14.40;99.90
4856;DHT22;2442;48.676;7.986;2023-11-19T11:03:41;14.50;99.90
4856;DHT22;2442;48.676;7.986;2023-11-19T11:06:08;14.50;99.90
4856;DHT22;2442;48.676;7.986;2023-11-19T11:08:36;14.70;99.90
4856;DHT22;2442;48.676;7.986;2023-11-19T11:11:03;14.50;99.90
4856;DHT22;2442;48.676;7.986;2023-11-19T11:13:31;14.60;99.90
4856;DHT22;2442;48.676;7.986;2023-11-19T11:15:59;14.70;99.90
4856;DHT22;2442;48.676;7.986;2023-11-19T11:18:27;14.70;99.90
4856;DHT22;2442;48.676;7.986;2023-11-19T11:20:54;14.40;99.90
4856;DHT22;2442;48.676;7.986;2023-11-19T11:23:29;14.20;99.90
4856;DHT22;2442;48.676;7.986;2023-11-19T11:26:05;14.50;99.90
4856;DHT22;2442;48.676;7.986;2023-11-19T11:28:37;14.40;99.90
4856;DHT22;2442;48.676;7.986;2023-11-19T11:31:09;14.50;99.90
4856;DHT22;2442;48.676;7.986;2023-11-19T11:33:44;14.80;99.90
4856;DHT22;2442;48.676;7.986;2023-11-19T11:36:19;14.70;99.90
4856;DHT22;2442;48.676;7.986;2023-11-19T11:38:47;14.30;99.90
4856;DHT22;2442;48.676;7.986;2023-11-19T11:41:15;14.50;99.90
4856;DHT22;2442;48.676;7.986;2023-11-19T11:43:46;14.70;99.90
4856;DHT22;2442;48.676;7.986;2023-11-19T11:48:59;14.70;99.90
4856;DHT22;2442;48.676;7.986;2023-11-19T11:54:08;15.00;99.90
4856;DHT22;2442;48.676;7.986;2023-11-19T11:56:36;15.10;99.90
4856;DHT22;2442;48.676;7.986;2023-11-19T11:59:05;15.30;99.90
4856;DHT22;2442;48.676;7.986;2023-11-19T12:01:33;15.70;99.90
4856;DHT22;2442;48.676;7.986;2023-11-19T12:04:02;15.70;99.90
4856;DHT22;2442;48.676;7.986;2023-11-19T12:06:32;15.90;99.90
4856;DHT22;2442;48.676;7.986;2023-11-19T12:08:59;15.70;99.90
4856;DHT22;2442;48.676;7.986;2023-11-19T12:11:26;15.60;99.90
4856;DHT22;2442;48.676;7.986;2023-11-19T12:13:55;15.60;99.90
4856;DHT22;2442;48.676;7.986;2023-11-19T12:16:23;15.50;99.90
4856;DHT22;2442;48.676;7.986;2023-11-19T12:18:50;15.30;99.90
4856;DHT22;2442;48.676;7.986;2023-11-19T12:21:28;15.30;99.90
4856;DHT22;2442;48.676;7.986;2023-11-19T12:23:57;15.40;99.90
4856;DHT22;2442;48.676;7.986;2023-11-19T12:26:34;15.60;99.90
4856;DHT22;2442;48.676;7.986;2023-11-19T12:29:01;15.50;99.90
4856;DHT22;2442;48.676;7.986;2023-11-19T12:31:29;15.50;99.90
4856;DHT22;2442;48.676;7.986;2023-11-19T12:33:56;15.30;99.90
4856;DHT22;2442;48.676;7.986;2023-11-19T12:36:22;15.20;99.90
4856;DHT22;2442;48.676;7.986;2023-11-19T12:38:50;14.90;99.90
4856;DHT22;2442;48.676;7.986;2023-11-19T12:41:17;14.90;99.90
4856;DHT22;2442;48.676;7.986;2023-11-19T12:43:47;14.90;99.90
4856;DHT22;2442;48.676;7.986;2023-11-19T12:46:17;15.10;99.90
4856;DHT22;2442;48.676;7.986;2023-11-19T12:48:45;15.20;99.90
4856;DHT22;2442;48.676;7.986;2023-11-19T12:51:11;15.30;99.90
4856;DHT22;2442;48.676;7.986;2023-11-19T12:53:47;15.30;99.90
4856;DHT22;2442;48.676;7.986;2023-11-19T12:56:15;15.20;99.90
4856;DHT22;2442;48.676;7.986;2023-11-19T12:58:42;15.00;99.90
4856;DHT22;2442;48.676;7.986;2023-11-19T13:01:09;15.10;99.90
4856;DHT22;2442;48.676;7.986;2023-11-19T13:03:36;14.80;99.90
4856;DHT22;2442;48.676;7.986;2023-11-19T13:06:04;14.70;99.90
4856;DHT22;2442;48.676;7.986;2023-11-19T13:08:36;14.80;99.90
4856;DHT22;2442;48.676;7.986;2023-11-19T13:11:04;14.90;99.90
4856;DHT22;2442;48.676;7.986;2023-11-19T13:13:33;15.20;99.90
4856;DHT22;2442;48.676;7.986;2023-11-19T13:16:01;15.20;99.90
4856;DHT22;2442;48.676;7.986;2023-11-19T13:18:28;15.30;99.90
4856;DHT22;2442;48.676;7.986;2023-11-19T13:20:55;15.30;99.90
4856;DHT22;2442;48.676;7.986;2023-11-19T13:23:22;15.40;99.90
4856;DHT22;2442;48.676;7.986;2023-11-19T13:25:49;15.40;99.90
4856;DHT22;2442;48.676;7.986;2023-11-19T13:28:16;15.40;99.90
4856;DHT22;2442;48.676;7.986;2023-11-19T13:30:44;15.30;99.90
4856;DHT22;2442;48.676;7.986;2023-11-19T13:33:10;15.40;99.90
4856;DHT22;2442;48.676;7.986;2023-11-19T13:35:38;15.30;99.90
4856;DHT22;2442;48.676;7.986;2023-11-19T13:38:06;15.50;99.90
4856;DHT22;2442;48.676;7.986;2023-11-19T13:40:34;15.70;99.90
4856;DHT22;2442;48.676;7.986;2023-11-19T13:43:00;15.70;99.90
4856;DHT22;2442;48.676;7.986;2023-11-19T13:45:27;15.70;99.90
4856;DHT22;2442;48.676;7.986;2023-11-19T13:47:56;15.70;99.90
4856;DHT22;2442;48.676;7.986;2023-11-19T13:50:22;15.80;99.90
4856;DHT22;2442;48.676;7.986;2023-11-19T13:52:49;15.80;99.90
4856;DHT22;2442;48.676;7.986;2023-11-19T13:55:15;15.80;99.90
4856;DHT22;2442;48.676;7.986;2023-11-19T13:57:43;15.70;99.90
4856;DHT22;2442;48.676;7.986;2023-11-19T14:00:10;15.60;99.90
4856;DHT22;2442;48.676;7.986;2023-11-19T14:02:38;15.50;99.90
4856;DHT22;2442;48.676;7.986;2023-11-19T14:05:07;15.40;99.90
4856;DHT22;2442;48.676;7.986;2023-11-19T14:07:33;15.30;99.90
4856;DHT22;2442;48.676;7.986;2023-11-19T14:09:59;15.30;99.90
4856;DHT22;2442;48.676;7.986;2023-11-19T14:12:26;15.20;99.90
4856;DHT22;2442;48.676;7.986;2023-11-19T14:14:52;15.20;99.90
4856;DHT22;2442;48.676;7.986;2023-11-19T14:17:20;15.10;99.90
4856;DHT22;2442;48.676;7.986;2023-11-19T14:19:46;15.10;99.90
4856;DHT22;2442;48.676;7.986;2023-11-19T14:22:14;15.10;99.90
4856;DHT22;2442;48.676;7.986;2023-11-19T14:24:41;15.10;99.90
4856;DHT22;2442;48.676;7.986;2023-11-19T14:27:08;15.20;99.90
4856;DHT22;2442;48.676;7.986;2023-11-19T14:29:35;15.20;99.90
4856;DHT22;2442;48.676;7.986;2023-11-19T14:32:02;15.20;99.90
4856;DHT22;2442;48.676;7.986;2023-11-19T14:34:29;15.20;99.90
4856;DHT22;2442;48.676;7.986;2023-11-19T14:36:55;15.20;99.90
4856;DHT22;2442;48.676;7.986;2023-11-19T14:39:23;15.20;99.90
4856;DHT22;2442;48.676;7.986;2023-11-19T14:41:50;15.20;99.90
4856;DHT22;2442;48.676;7.986;2023-11-19T14:44:19;15.30;99.90
4856;DHT22;2442;48.676;7.986;2023-11-19T14:46:46;15.20;99.90
4856;DHT22;2442;48.676;7.986;2023-11-19T14:49:13;15.20;99.90
4856;DHT22;2442;48.676;7.986;2023-11-19T14:51:40;15.20;99.90
4856;DHT22;2442;48.676;7.986;2023-11-19T14:54:06;15.00;99.90
4856;DHT22;2442;48.676;7.986;2023-11-19T14:56:35;14.90;99.90
4856;DHT22;2442;48.676;7.986;2023-11-19T14:59:03;14.80;99.90
4856;DHT22;2442;48.676;7.986;2023-11-19T15:01:30;14.70;99.90
4856;DHT22;2442;48.676;7.986;2023-11-19T15:03:57;14.70;99.90
4856;DHT22;2442;48.676;7.986;2023-11-19T15:06:23;14.70;99.90
4856;DHT22;2442;48.676;7.986;2023-11-19T15:08:52;14.70;99.90
4856;DHT22;2442;48.676;7.986;2023-11-19T15:11:19;14.70;99.90
4856;DHT22;2442;48.676;7.986;2023-11-19T15:13:47;14.60;99.90
4856;DHT22;2442;48.676;7.986;2023-11-19T15:16:14;14.50;99.90
4856;DHT22;2442;48.676;7.986;2023-11-19T15:18:47;14.40;99.90
4856;DHT22;2442;48.676;7.986;2023-11-19T15:21:14;14.20;99.90
4856;DHT22;2442;48.676;7.986;2023-11-19T15:23:40;14.10;99.90
4856;DHT22;2442;48.676;7.986;2023-11-19T15:26:07;14.20;99.90
4856;DHT22;2442;48.676;7.986;2023-11-19T15:28:35;14.20;99.90
4856;DHT22;2442;48.676;7.986;2023-11-19T15:31:04;14.30;99.90
4856;DHT22;2442;48.676;7.986;2023-11-19T15:33:30;14.20;99.90
4856;DHT22;2442;48.676;7.986;2023-11-19T15:35:57;14.20;99.90
4856;DHT22;2442;48.676;7.986;2023-11-19T15:38:25;14.20;99.90
4856;DHT22;2442;48.676;7.986;2023-11-19T15:40:52;14.00;99.90
4856;DHT22;2442;48.676;7.986;2023-11-19T15:43:19;14.00;99.90
4856;DHT22;2442;48.676;7.986;2023-11-19T15:45:45;13.90;99.90
4856;DHT22;2442;48.676;7.986;2023-11-19T15:48:13;13.90;99.90
4856;DHT22;2442;48.676;7.986;2023-11-19T15:50:40;14.00;99.90
4856;DHT22;2442;48.676;7.986;2023-11-19T15:53:09;14.00;99.90
4856;DHT22;2442;48.676;7.986;2023-11-19T15:55:36;14.00;99.90
4856;DHT22;2442;48.676;7.986;2023-11-19T15:58:03;14.00;99.90
4856;DHT22;2442;48.676;7.986;2023-11-19T16:00:30;13.90;99.90
4856;DHT22;2442;48.676;7.986;2023-11-19T16:02:57;14.00;99.90
4856;DHT22;2442;48.676;7.986;2023-11-19T16:05:25;14.00;99.90
4856;DHT22;2442;48.676;7.986;2023-11-19T16:07:51;14.00;99.90
4856;DHT22;2442;48.676;7.986;2023-11-19T16:10:18;14.00;99.90